Time;durP1;ratioP1;P1;durP2;ratioP2;P2;SDS_P1;SDS_P2;PMS_P1;PMS_P2;Temp;Humidity;BMP_temperature;BMP_pressure;BME280_temperature;BME280_humidity;BME280_pressure;Samples;Min_cycle;Max_cycle;Signal;HPM_P1;HPM_P2
2023/03/16 00:00:12;;;;;;;6.57;2.38;;;1.10;92.00;;;;;;5000526;28;20050;-62
2023/03/16 00:02:40;;;;;;;4.35;1.98;;;1.20;91.30;;;;;;4992990;28;20038;-63
2023/03/16 00:05:06;;;;;;;7.70;1.77;;;1.30;90.60;;;;;;4992602;28;20112;-63
2023/03/16 00:07:33;;;;;;;8.85;1.92;;;1.30;88.40;;;;;;4991607;28;20429;-62
2023/03/16 00:09:58;;;;;;;6.20;1.80;;;1.40;86.60;;;;;;4990624;28;20053;-62
2023/03/16 00:12:25;;;;;;;10.38;2.10;;;1.50;85.50;;;;;;4984306;28;20057;-63
2023/03/16 00:14:51;;;;;;;5.22;1.90;;;1.50;84.30;;;;;;4977129;28;20093;-62
2023/03/16 00:17:18;;;;;;;9.23;2.92;;;1.50;83.80;;;;;;4974373;28;20489;-62
2023/03/16 00:19:50;;;;;;;6.38;2.17;;;1.50;83.00;;;;;;5001020;28;20050;-62
2023/03/16 00:22:16;;;;;;;5.07;1.83;;;1.50;83.00;;;;;;4988413;28;20043;-62
2023/03/16 00:24:42;;;;;;;9.70;2.08;;;1.50;83.80;;;;;;4988737;28;20116;-62
2023/03/16 00:27:13;;;;;;;9.00;2.13;;;1.50;83.10;;;;;;4987918;28;20061;-62
2023/03/16 00:29:54;;;;;;;7.20;2.30;;;1.50;81.90;;;;;;4988132;28;20465;-62
2023/03/16 00:32:26;;;;;;;4.97;1.50;;;1.50;81.70;;;;;;4971397;28;20085;-62
2023/03/16 00:34:52;;;;;;;11.88;2.22;;;1.50;80.70;;;;;;4988293;28;20084;-62
2023/03/16 00:37:19;;;;;;;7.53;2.17;;;1.50;80.10;;;;;;4992992;28;20546;-62
2023/03/16 00:39:46;;;;;;;9.18;2.00;;;1.50;79.30;;;;;;4990356;28;20149;-62
2023/03/16 00:42:13;;;;;;;5.32;2.08;;;1.50;78.70;;;;;;4987590;28;20085;-63
2023/03/16 00:44:40;;;;;;;2.50;1.42;;;1.50;78.80;;;;;;4987123;28;20038;-62
2023/03/16 00:47:07;;;;;;;9.60;2.00;;;1.50;79.30;;;;;;4973567;28;20070;-62
2023/03/16 00:49:34;;;;;;;13.68;2.20;;;1.50;78.90;;;;;;4986963;28;20113;-63
2023/03/16 00:52:05;;;;;;;4.75;2.00;;;1.50;79.80;;;;;;4987714;28;20034;-63
2023/03/16 00:54:31;;;;;;;12.07;2.17;;;1.50;80.50;;;;;;4986680;28;20100;-62
2023/03/16 00:56:58;;;;;;;5.90;1.70;;;1.40;81.40;;;;;;4987750;28;20038;-63
2023/03/16 00:59:25;;;;;;;10.30;1.90;;;1.50;82.20;;;;;;4993210;28;20440;-63
2023/03/16 01:01:54;;;;;;;5.38;1.77;;;1.40;82.30;;;;;;4985528;28;20046;-62
2023/03/16 01:04:21;;;;;;;5.25;1.58;;;1.40;82.60;;;;;;4970378;28;20057;-62
2023/03/16 01:06:48;;;;;;;5.35;1.55;;;1.30;82.90;;;;;;4986299;28;20081;-62
2023/03/16 01:09:13;;;;;;;7.03;1.65;;;1.40;82.60;;;;;;5005195;28;20046;-62
2023/03/16 01:11:41;;;;;;;4.53;1.77;;;1.40;82.00;;;;;;4976083;28;20053;-62
2023/03/16 01:14:08;;;;;;;10.45;1.70;;;1.50;81.30;;;;;;4989764;28;20057;-62
2023/03/16 01:16:34;;;;;;;10.93;1.70;;;1.50;81.10;;;;;;4991227;28;20038;-62
2023/03/16 01:19:00;;;;;;;13.18;2.13;;;1.50;80.30;;;;;;4993228;28;20050;-62
2023/03/16 01:21:26;;;;;;;6.60;1.60;;;1.50;79.90;;;;;;4987354;28;20520;-62
2023/03/16 01:23:52;;;;;;;4.88;1.63;;;1.50;80.10;;;;;;4995686;28;20054;-62
2023/03/16 01:26:19;;;;;;;6.63;1.70;;;1.50;80.00;;;;;;5006955;28;20577;-62
2023/03/16 01:28:45;;;;;;;7.38;2.30;;;1.50;80.80;;;;;;5004247;28;20077;-63
2023/03/16 01:31:13;;;;;;;6.10;1.90;;;1.50;80.70;;;;;;4979309;28;20144;-62
2023/03/16 01:33:40;;;;;;;8.45;1.65;;;1.50;81.20;;;;;;4981954;28;20057;-62
2023/03/16 01:36:24;;;;;;;8.20;2.13;;;1.50;81.00;;;;;;4987188;28;20046;-62
2023/03/16 01:38:50;;;;;;;4.28;1.40;;;1.50;81.00;;;;;;4975182;28;20203;-62
2023/03/16 01:41:16;;;;;;;6.60;1.48;;;1.50;81.00;;;;;;4998372;28;20096;-62
2023/03/16 01:43:42;;;;;;;7.68;2.20;;;1.60;80.70;;;;;;4988101;28;20117;-62
2023/03/16 01:46:23;;;;;;;10.52;2.08;;;1.60;80.60;;;;;;4986493;28;20552;-62
2023/03/16 01:48:53;;;;;;;6.00;2.10;;;1.60;80.70;;;;;;4987779;28;20042;-62
2023/03/16 01:51:21;;;;;;;10.13;2.08;;;1.60;80.30;;;;;;4986582;28;20100;-62
2023/03/16 01:53:51;;;;;;;5.97;2.03;;;1.70;80.50;;;;;;4986230;28;20046;-62
2023/03/16 01:56:22;;;;;;;9.77;2.40;;;1.70;80.50;;;;;;4987203;28;20042;-62
2023/03/16 01:58:51;;;;;;;10.07;2.45;;;1.70;80.30;;;;;;4986675;28;20045;-62
2023/03/16 02:01:17;;;;;;;6.40;1.98;;;1.70;80.90;;;;;;4986900;28;20484;-62
2023/03/16 02:03:43;;;;;;;3.30;1.95;;;1.70;81.20;;;;;;4985350;28;20089;-62
2023/03/16 02:06:17;;;;;;;8.25;2.45;;;1.70;81.50;;;;;;4993480;28;20049;-62
2023/03/16 02:08:44;;;;;;;8.38;2.25;;;1.70;81.70;;;;;;4986380;28;20073;-62
2023/03/16 02:11:10;;;;;;;6.43;1.95;;;1.80;82.30;;;;;;5002494;28;20049;-62
2023/03/16 02:13:36;;;;;;;17.15;2.25;;;1.80;83.50;;;;;;5006712;28;20136;-63
2023/03/16 02:16:05;;;;;;;7.68;1.88;;;1.80;83.90;;;;;;4958095;28;20440;-62
2023/03/16 02:18:32;;;;;;;4.53;2.13;;;1.70;85.20;;;;;;4996131;28;20100;-62
2023/03/16 02:21:04;;;;;;;5.03;2.22;;;1.70;86.40;;;;;;4986761;28;20074;-62
2023/03/16 02:23:31;;;;;;;4.85;2.20;;;1.80;87.90;;;;;;4986562;28;20053;-62
2023/03/16 02:26:09;;;;;;;7.45;2.30;;;1.80;89.00;;;;;;4986305;28;20054;-62
2023/03/16 02:28:48;;;;;;;3.88;1.85;;;1.80;89.10;;;;;;4986025;28;20373;-62
2023/03/16 02:31:18;;;;;;;9.48;2.20;;;1.80;89.30;;;;;;4988894;28;20140;-62
2023/03/16 02:33:46;;;;;;;8.52;1.98;;;1.90;89.90;;;;;;4967825;28;20489;-62
2023/03/16 02:36:17;;;;;;;10.80;2.15;;;1.80;89.80;;;;;;4993756;28;20034;-62
2023/03/16 02:38:43;;;;;;;8.90;2.38;;;1.90;90.10;;;;;;4988910;28;20097;-62
2023/03/16 02:41:16;;;;;;;5.07;1.88;;;1.90;89.70;;;;;;4990500;28;20085;-62
2023/03/16 02:43:54;;;;;;;7.40;2.08;;;1.90;89.90;;;;;;5003713;28;20034;-62
2023/03/16 02:46:24;;;;;;;5.07;2.28;;;1.90;90.00;;;;;;5001033;28;20117;-62
2023/03/16 02:49:05;;;;;;;7.18;2.08;;;2.00;88.80;;;;;;4980632;28;20046;-62
2023/03/16 02:51:31;;;;;;;12.55;1.92;;;2.00;87.80;;;;;;4987217;28;20050;-62
2023/03/16 02:53:57;;;;;;;10.85;2.17;;;2.10;88.10;;;;;;4998647;28;20528;-62
2023/03/16 02:56:23;;;;;;;11.50;2.20;;;2.10;87.50;;;;;;4994123;28;20374;-62
2023/03/16 02:58:49;;;;;;;7.43;2.03;;;2.10;87.00;;;;;;4998726;28;20079;-62
2023/03/16 03:01:15;;;;;;;9.32;2.35;;;2.20;86.80;;;;;;4996724;28;20505;-62
2023/03/16 03:03:41;;;;;;;3.35;1.58;;;2.20;85.60;;;;;;4996651;28;20042;-62
2023/03/16 03:06:06;;;;;;;6.55;2.58;;;2.30;85.20;;;;;;4995503;28;20096;-63
2023/03/16 03:08:32;;;;;;;8.52;2.58;;;2.30;83.40;;;;;;4995163;28;20477;-63
2023/03/16 03:10:58;;;;;;;8.32;1.83;;;2.40;83.40;;;;;;4995569;28;20042;-62
2023/03/16 03:13:24;;;;;;;5.75;2.28;;;2.50;83.20;;;;;;4978322;28;20127;-62
2023/03/16 03:15:50;;;;;;;5.18;1.98;;;2.40;82.80;;;;;;4965314;28;20058;-62
2023/03/16 03:18:15;;;;;;;6.15;1.52;;;2.50;82.70;;;;;;4968717;28;20122;-62
2023/03/16 03:20:41;;;;;;;3.40;2.30;;;2.60;81.90;;;;;;4987317;28;20108;-62
2023/03/16 03:23:07;;;;;;;8.43;2.17;;;2.60;79.90;;;;;;4990848;28;20089;-62
2023/03/16 03:25:35;;;;;;;4.82;2.30;;;2.70;78.70;;;;;;4996735;28;20118;-62
2023/03/16 03:28:04;;;;;;;4.90;1.35;;;2.80;76.10;;;;;;4997869;28;20041;-62
2023/03/16 03:30:30;;;;;;;5.78;2.35;;;2.80;74.40;;;;;;4997975;28;20216;-62
2023/03/16 03:32:55;;;;;;;7.05;2.22;;;2.90;73.10;;;;;;4989123;28;20039;-62
2023/03/16 03:35:21;;;;;;;4.68;1.60;;;2.90;70.90;;;;;;4994381;28;20042;-62
2023/03/16 03:37:48;;;;;;;8.82;2.28;;;3.00;69.80;;;;;;4988285;28;20428;-62
2023/03/16 03:40:16;;;;;;;2.83;1.85;;;3.10;68.20;;;;;;4988532;28;20088;-62
2023/03/16 03:42:42;;;;;;;7.90;2.13;;;3.10;68.10;;;;;;4988791;28;20107;-63
2023/03/16 03:45:11;;;;;;;6.93;2.10;;;3.10;67.20;;;;;;4988710;28;20117;-62
2023/03/16 03:47:38;;;;;;;2.97;1.48;;;3.10;65.50;;;;;;4989752;28;20065;-62
2023/03/16 03:50:04;;;;;;;5.35;1.95;;;3.20;65.90;;;;;;4988393;28;20062;-62
2023/03/16 03:52:30;;;;;;;9.98;2.00;;;3.20;64.90;;;;;;4989514;28;20038;-62
2023/03/16 03:54:55;;;;;;;7.18;2.47;;;3.20;65.10;;;;;;4987842;28;20436;-62
2023/03/16 03:57:21;;;;;;;5.97;2.35;;;3.20;65.30;;;;;;4989167;28;20041;-62
2023/03/16 03:59:47;;;;;;;9.82;2.33;;;3.20;64.00;;;;;;4989188;28;20101;-63
2023/03/16 04:02:13;;;;;;;6.57;2.33;;;3.20;64.00;;;;;;4988789;28;20042;-62
2023/03/16 04:04:40;;;;;;;7.43;1.73;;;3.20;64.30;;;;;;4990766;28;20038;-62
2023/03/16 04:07:06;;;;;;;5.50;1.50;;;3.20;64.20;;;;;;4993363;28;20050;-62
2023/03/16 04:09:32;;;;;;;3.80;1.88;;;3.20;65.00;;;;;;4988150;28;20065;-62
2023/03/16 04:12:03;;;;;;;8.98;2.40;;;3.20;65.70;;;;;;4988071;28;20497;-62
2023/03/16 04:14:29;;;;;;;5.55;2.00;;;3.20;65.90;;;;;;4988555;28;20497;-62
2023/03/16 04:16:56;;;;;;;12.10;2.45;;;3.20;65.60;;;;;;4970185;28;20113;-62
2023/03/16 04:19:23;;;;;;;2.97;2.00;;;3.10;65.70;;;;;;4987984;28;20504;-63
2023/03/16 04:21:49;;;;;;;2.53;2.05;;;3.10;66.00;;;;;;4970364;28;20062;-62
2023/03/16 04:24:15;;;;;;;5.50;2.63;;;3.10;65.30;;;;;;4987675;28;20092;-62
2023/03/16 04:26:43;;;;;;;8.13;2.10;;;3.20;65.80;;;;;;4988108;28;20042;-63
2023/03/16 04:29:11;;;;;;;7.40;2.40;;;3.10;65.20;;;;;;4987744;28;20061;-62
2023/03/16 04:31:37;;;;;;;6.38;2.72;;;3.10;66.00;;;;;;4988390;28;20065;-62
2023/03/16 04:34:02;;;;;;;9.73;2.53;;;3.10;66.50;;;;;;4986741;28;20043;-62
2023/03/16 04:36:28;;;;;;;5.13;2.20;;;3.10;66.00;;;;;;4968056;28;20504;-62
2023/03/16 04:38:54;;;;;;;8.75;2.33;;;3.10;66.30;;;;;;4967223;28;20448;-62
2023/03/16 04:41:19;;;;;;;3.97;2.42;;;3.10;65.80;;;;;;4967921;28;20070;-63
2023/03/16 04:43:45;;;;;;;2.65;1.50;;;3.10;65.80;;;;;;4968338;28;20059;-62
2023/03/16 04:46:11;;;;;;;3.55;2.03;;;3.10;66.30;;;;;;4968163;28;20046;-62
2023/03/16 04:48:37;;;;;;;6.93;2.08;;;3.10;65.90;;;;;;4969626;28;20186;-62
2023/03/16 04:51:03;;;;;;;8.93;2.30;;;3.10;65.70;;;;;;4967970;28;20049;-62
2023/03/16 04:53:32;;;;;;;9.60;3.00;;;3.10;66.40;;;;;;4968482;28;20098;-62
2023/03/16 04:55:58;;;;;;;1.42;1.33;;;3.10;65.40;;;;;;4966984;28;20052;-62
2023/03/16 04:58:24;;;;;;;2.58;1.60;;;3.10;66.00;;;;;;4967870;28;20054;-62
2023/03/16 05:00:54;;;;;;;15.95;2.70;;;3.10;66.20;;;;;;4979461;28;20043;-63
2023/03/16 05:03:21;;;;;;;3.78;2.20;;;3.10;65.80;;;;;;4972867;28;20053;-62
2023/03/16 05:05:48;;;;;;;3.63;1.75;;;3.10;66.30;;;;;;4968390;28;20054;-62
2023/03/16 05:08:14;;;;;;;4.20;1.58;;;3.10;67.10;;;;;;4966386;28;20067;-62
2023/03/16 05:10:41;;;;;;;7.30;1.83;;;3.10;66.90;;;;;;4968451;28;20178;-62
2023/03/16 05:13:06;;;;;;;8.65;2.33;;;3.10;67.20;;;;;;4979323;28;20042;-62
2023/03/16 05:15:32;;;;;;;9.35;2.75;;;3.10;67.40;;;;;;4967941;28;20054;-62
2023/03/16 05:17:59;;;;;;;7.32;2.70;;;3.10;67.40;;;;;;4967291;28;20541;-62
2023/03/16 05:20:24;;;;;;;9.88;3.42;;;3.20;67.40;;;;;;4977506;28;20046;-62
2023/03/16 05:22:50;;;;;;;4.55;2.35;;;3.20;66.60;;;;;;4968609;28;20193;-62
2023/03/16 05:25:17;;;;;;;10.10;3.08;;;3.20;66.80;;;;;;4967466;28;20129;-62
2023/03/16 05:27:52;;;;;;;4.30;2.45;;;3.20;66.90;;;;;;4966659;28;20046;-62
2023/03/16 05:30:19;;;;;;;5.80;2.35;;;3.20;66.90;;;;;;4973132;28;20082;-62
2023/03/16 05:32:45;;;;;;;3.30;2.28;;;3.30;66.80;;;;;;4970999;28;20125;-62
2023/03/16 05:35:12;;;;;;;6.07;2.78;;;3.30;67.10;;;;;;4966730;28;20046;-62
2023/03/16 05:37:41;;;;;;;2.78;1.95;;;3.20;67.50;;;;;;4967581;28;20042;-62
2023/03/16 05:40:15;;;;;;;3.88;2.25;;;3.40;67.40;;;;;;4983546;28;20131;-61
2023/03/16 05:42:46;;;;;;;4.10;1.80;;;3.30;66.10;;;;;;4987014;28;20197;-60
2023/03/16 05:45:14;;;;;;;8.13;2.63;;;3.30;65.30;;;;;;4986571;28;20083;-60
2023/03/16 05:47:40;;;;;;;5.55;2.50;;;3.40;65.90;;;;;;4986758;28;20386;-60
2023/03/16 05:50:10;;;;;;;7.50;2.50;;;3.50;66.00;;;;;;4986708;28;20394;-60
2023/03/16 05:52:37;;;;;;;2.03;1.77;;;3.50;66.10;;;;;;4984939;28;20560;-62
2023/03/16 05:55:04;;;;;;;5.32;2.67;;;3.50;66.20;;;;;;4986926;28;20402;-62
2023/03/16 05:57:31;;;;;;;6.30;2.88;;;3.50;65.60;;;;;;4986059;28;20504;-62
2023/03/16 05:59:56;;;;;;;5.63;2.83;;;3.50;65.40;;;;;;4969247;28;20050;-62
2023/03/16 06:02:22;;;;;;;4.13;2.72;;;3.60;65.40;;;;;;4974919;28;20419;-62
2023/03/16 06:04:48;;;;;;;6.10;3.97;;;3.60;65.20;;;;;;4992985;28;20061;-62
2023/03/16 06:07:13;;;;;;;5.20;2.75;;;3.60;65.40;;;;;;4986312;28;20125;-62
2023/03/16 06:09:39;;;;;;;9.00;3.95;;;3.60;65.70;;;;;;4986183;28;20061;-62
2023/03/16 06:12:05;;;;;;;6.15;2.60;;;3.60;66.50;;;;;;4969121;28;20038;-62
2023/03/16 06:14:31;;;;;;;3.63;2.25;;;3.60;66.70;;;;;;4968409;28;20129;-62
2023/03/16 06:16:56;;;;;;;2.70;2.15;;;3.60;66.50;;;;;;4986313;28;20042;-62
2023/03/16 06:19:22;;;;;;;7.78;3.22;;;3.60;67.00;;;;;;4985602;28;20485;-62
2023/03/16 06:21:48;;;;;;;7.43;2.78;;;3.60;67.80;;;;;;4969196;28;20468;-62
2023/03/16 06:24:13;;;;;;;4.20;1.50;;;3.70;67.10;;;;;;4988629;28;20052;-62
2023/03/16 06:26:40;;;;;;;8.95;3.20;;;3.60;67.50;;;;;;4997146;28;20414;-62
2023/03/16 06:29:06;;;;;;;10.75;2.97;;;3.70;67.30;;;;;;4992484;28;20417;-62
2023/03/16 06:31:32;;;;;;;4.90;3.17;;;3.70;66.80;;;;;;4992613;28;20692;-62
2023/03/16 06:33:59;;;;;;;6.18;2.50;;;3.70;66.90;;;;;;4977104;28;20051;-62
2023/03/16 06:36:25;;;;;;;6.53;2.60;;;3.70;66.80;;;;;;4975727;28;20038;-61
2023/03/16 06:38:51;;;;;;;3.08;2.45;;;3.70;66.40;;;;;;4981925;28;20050;-62
2023/03/16 06:41:17;;;;;;;2.75;2.03;;;3.80;67.20;;;;;;4994024;28;20064;-62
2023/03/16 06:43:42;;;;;;;6.82;2.90;;;3.80;65.60;;;;;;4997377;28;20099;-62
2023/03/16 06:46:08;;;;;;;1.95;1.45;;;3.90;66.60;;;;;;4975449;28;20058;-62
2023/03/16 06:48:34;;;;;;;4.55;2.65;;;3.90;65.10;;;;;;4993664;28;20068;-62
2023/03/16 06:51:00;;;;;;;7.93;1.40;;;4.00;64.80;;;;;;4987072;28;20046;-61
2023/03/16 06:53:26;;;;;;;3.25;1.30;;;4.00;64.60;;;;;;4997759;28;20048;-62
2023/03/16 06:55:51;;;;;;;3.75;2.28;;;4.10;63.10;;;;;;4979259;28;20584;-62
2023/03/16 06:58:17;;;;;;;4.85;2.40;;;4.10;63.00;;;;;;4997700;28;20104;-62
2023/03/16 07:00:43;;;;;;;1.75;1.42;;;4.20;63.40;;;;;;5000902;28;20456;-62
2023/03/16 07:03:09;;;;;;;5.72;1.60;;;4.30;61.70;;;;;;4997050;28;20407;-62
2023/03/16 07:05:35;;;;;;;6.32;3.60;;;4.20;61.40;;;;;;5000824;28;20619;-62
2023/03/16 07:08:01;;;;;;;8.10;2.63;;;4.30;61.50;;;;;;4997530;28;20125;-62
2023/03/16 07:10:26;;;;;;;5.40;2.35;;;4.30;61.40;;;;;;5000588;28;20046;-62
2023/03/16 07:12:52;;;;;;;6.75;2.42;;;4.30;59.70;;;;;;5003777;28;20065;-62
2023/03/16 07:15:18;;;;;;;1.85;1.42;;;4.40;60.60;;;;;;4987864;28;20054;-62
2023/03/16 07:17:44;;;;;;;3.55;2.20;;;4.40;61.00;;;;;;4987851;28;20042;-62
2023/03/16 07:20:11;;;;;;;2.78;2.40;;;4.40;61.70;;;;;;4973657;28;20050;-63
2023/03/16 07:22:38;;;;;;;2.50;2.15;;;4.30;61.40;;;;;;4992642;28;20047;-60
2023/03/16 07:25:05;;;;;;;2.08;1.83;;;4.40;62.60;;;;;;4989841;28;20046;-60
2023/03/16 07:27:31;;;;;;;5.00;2.30;;;4.40;64.10;;;;;;4970685;28;20545;-60
2023/03/16 07:29:57;;;;;;;2.80;1.60;;;4.40;65.30;;;;;;4989433;28;20057;-61
2023/03/16 07:32:22;;;;;;;4.13;1.35;;;4.30;65.80;;;;;;4989880;28;20042;-60
2023/03/16 07:34:48;;;;;;;6.25;2.83;;;4.30;66.50;;;;;;4987643;28;20054;-60
2023/03/16 07:37:15;;;;;;;4.80;2.15;;;4.40;67.40;;;;;;4989765;28;20038;-60
2023/03/16 07:39:41;;;;;;;5.78;2.25;;;4.30;66.90;;;;;;4987876;28;20501;-60
2023/03/16 07:42:07;;;;;;;5.90;2.25;;;4.40;67.30;;;;;;4990684;28;20077;-60
2023/03/16 07:44:33;;;;;;;4.18;2.60;;;4.40;68.60;;;;;;4987998;28;20046;-60
2023/03/16 07:46:58;;;;;;;4.85;1.95;;;4.30;70.10;;;;;;4988988;28;20445;-61
2023/03/16 07:49:24;;;;;;;3.05;2.38;;;4.40;69.70;;;;;;4988349;28;20109;-61
2023/03/16 07:51:50;;;;;;;5.40;2.55;;;4.40;69.30;;;;;;4974067;28;20045;-61
2023/03/16 07:54:16;;;;;;;2.95;2.05;;;4.40;70.20;;;;;;4998907;28;20038;-61
2023/03/16 07:56:42;;;;;;;6.50;2.13;;;4.40;69.20;;;;;;4988435;28;20272;-61
2023/03/16 07:59:08;;;;;;;3.28;1.73;;;4.40;71.70;;;;;;4971490;28;20583;-60
2023/03/16 08:01:33;;;;;;;2.47;1.35;;;4.50;72.60;;;;;;4988032;28;20120;-61
2023/03/16 08:04:00;;;;;;;3.67;2.00;;;4.40;70.20;;;;;;4997981;28;20053;-61
2023/03/16 08:06:27;;;;;;;5.72;1.67;;;4.40;72.80;;;;;;4988317;28;20042;-61
2023/03/16 08:08:53;;;;;;;1.88;1.75;;;4.40;72.50;;;;;;4991861;28;20038;-61
2023/03/16 08:11:22;;;;;;;3.78;1.95;;;4.50;74.20;;;;;;4995011;28;20160;-61
2023/03/16 08:13:55;;;;;;;4.43;1.50;;;4.50;72.60;;;;;;4999307;28;20540;-61
2023/03/16 08:16:26;;;;;;;1.92;1.08;;;4.60;75.00;;;;;;4995059;28;20041;-61
2023/03/16 08:18:52;;;;;;;2.72;2.03;;;4.60;72.00;;;;;;4999276;28;20050;-61
2023/03/16 08:21:18;;;;;;;3.20;1.60;;;4.70;74.70;;;;;;4971103;28;20497;-61
2023/03/16 08:23:48;;;;;;;3.38;2.15;;;4.70;75.00;;;;;;5003173;28;20069;-61
2023/03/16 08:26:25;;;;;;;1.65;1.00;;;4.80;74.70;;;;;;4977353;28;20034;-60
2023/03/16 08:28:52;;;;;;;4.57;2.67;;;4.80;77.00;;;;;;4995313;28;20050;-61
2023/03/16 08:31:19;;;;;;;4.35;1.98;;;4.80;75.30;;;;;;5003251;28;20049;-61
2023/03/16 08:33:46;;;;;;;3.95;2.08;;;4.80;77.10;;;;;;4992195;28;20053;-61
2023/03/16 08:36:14;;;;;;;3.92;1.70;;;4.90;79.20;;;;;;4956864;28;20506;-61
2023/03/16 08:38:40;;;;;;;5.38;2.67;;;4.90;80.50;;;;;;4981855;28;20054;-61
2023/03/16 08:41:07;;;;;;;2.05;1.73;;;4.90;78.60;;;;;;4986035;28;20485;-61
2023/03/16 08:43:32;;;;;;;2.03;1.60;;;5.00;80.70;;;;;;4992384;28;20637;-61
2023/03/16 08:45:58;;;;;;;7.65;1.98;;;5.00;80.60;;;;;;4978162;28;20070;-61
2023/03/16 08:48:24;;;;;;;3.97;2.13;;;5.00;79.60;;;;;;4973679;28;20109;-61
2023/03/16 08:50:50;;;;;;;4.72;2.22;;;5.00;81.50;;;;;;4978434;28;20034;-61
2023/03/16 08:53:17;;;;;;;1.27;1.17;;;5.00;82.20;;;;;;4975793;28;20066;-61
2023/03/16 08:55:44;;;;;;;3.97;2.90;;;5.00;81.90;;;;;;4980284;28;20046;-61
2023/03/16 08:58:11;;;;;;;3.65;2.13;;;5.10;83.70;;;;;;4970443;28;20497;-61
2023/03/16 09:00:37;;;;;;;1.73;1.63;;;5.10;85.00;;;;;;4979592;28;20134;-61
2023/03/16 09:03:03;;;;;;;4.85;1.65;;;5.20;85.40;;;;;;4968615;28;20138;-61
2023/03/16 09:05:30;;;;;;;3.17;1.77;;;5.10;86.00;;;;;;4969830;28;20073;-61
2023/03/16 09:07:56;;;;;;;4.00;2.17;;;5.10;86.00;;;;;;4980842;28;20042;-60
2023/03/16 09:10:22;;;;;;;5.80;3.00;;;5.10;90.20;;;;;;4968552;28;20057;-61
2023/03/16 09:12:49;;;;;;;4.72;3.03;;;5.10;90.70;;;;;;4969438;28;20066;-61
2023/03/16 09:15:15;;;;;;;7.57;2.20;;;5.10;90.10;;;;;;4967542;28;20038;-61
2023/03/16 09:17:41;;;;;;;5.45;1.70;;;5.10;91.70;;;;;;4981335;28;20453;-61
2023/03/16 09:20:09;;;;;;;4.18;2.38;;;5.10;91.70;;;;;;4981180;28;20061;-61
2023/03/16 09:22:36;;;;;;;2.33;1.45;;;5.10;90.70;;;;;;4975869;28;20461;-61
2023/03/16 09:25:05;;;;;;;6.57;3.70;;;5.10;90.40;;;;;;4972770;28;20046;-61
2023/03/16 09:27:32;;;;;;;2.70;2.17;;;5.00;91.60;;;;;;4976480;28;20559;-61
2023/03/16 09:29:59;;;;;;;5.15;2.90;;;5.10;92.40;;;;;;4970555;28;20065;-61
2023/03/16 09:32:27;;;;;;;3.80;1.85;;;5.10;92.70;;;;;;4979415;28;20508;-61
2023/03/16 09:34:53;;;;;;;3.72;2.08;;;5.00;93.30;;;;;;4980574;28;20481;-61
2023/03/16 09:37:20;;;;;;;2.63;1.27;;;5.20;93.90;;;;;;4980212;28;20042;-61
2023/03/16 09:39:47;;;;;;;3.38;2.25;;;5.10;93.10;;;;;;4977699;28;20674;-61
2023/03/16 09:42:25;;;;;;;5.32;3.47;;;5.20;94.60;;;;;;4991558;28;20133;-61
2023/03/16 09:45:16;;;;;;;5.28;2.85;;;5.20;94.60;;;;;;4992859;28;20112;-61
2023/03/16 09:47:46;;;;;;;7.20;3.30;;;5.30;93.20;;;;;;4995226;28;20092;-61
2023/03/16 09:50:26;;;;;;;4.60;0.98;;;5.30;92.10;;;;;;4994253;28;20069;-62
2023/03/16 09:53:01;;;;;;;2.95;1.73;;;5.30;92.20;;;;;;4969303;28;20046;-62
2023/03/16 09:55:34;;;;;;;3.55;2.28;;;5.30;92.60;;;;;;4992810;28;20092;-62
2023/03/16 09:58:03;;;;;;;3.80;2.33;;;5.40;92.40;;;;;;4998594;28;20045;-62
2023/03/16 10:00:42;;;;;;;7.05;3.35;;;5.40;94.30;;;;;;5005205;28;20037;-62
2023/03/16 10:03:47;;;;;;;4.30;1.77;;;5.50;93.80;;;;;;4975518;28;20493;-62
2023/03/16 10:06:15;;;;;;;3.58;2.35;;;5.50;93.90;;;;;;4993092;28;20049;-62
2023/03/16 10:08:44;;;;;;;2.15;1.20;;;5.70;94.70;;;;;;4998213;28;20053;-62
2023/03/16 10:11:29;;;;;;;2.22;1.95;;;5.70;92.00;;;;;;4988075;28;20385;-62
2023/03/16 10:14:18;;;;;;;1.20;1.17;;;5.80;92.10;;;;;;4985187;28;20129;-62
2023/03/16 10:16:50;;;;;;;5.95;2.75;;;5.80;91.20;;;;;;4991765;28;20053;-62
2023/03/16 10:19:35;;;;;;;1.75;1.30;;;5.90;92.50;;;;;;4984262;28;20050;-62
2023/03/16 10:22:28;;;;;;;3.85;1.30;;;5.90;93.60;;;;;;4991034;28;20049;-62
2023/03/16 10:25:26;;;;;;;8.13;2.67;;;6.00;92.10;;;;;;4984262;28;20054;-62
2023/03/16 10:27:53;;;;;;;2.95;1.90;;;6.10;91.50;;;;;;4973861;28;20042;-62
2023/03/16 10:30:36;;;;;;;2.72;1.63;;;6.20;92.70;;;;;;4991691;28;20042;-62
2023/03/16 10:33:18;;;;;;;2.13;1.98;;;6.40;92.00;;;;;;4995933;28;20433;-62
2023/03/16 10:36:14;;;;;;;2.00;1.85;;;6.40;89.00;;;;;;4974586;28;20060;-62
2023/03/16 10:38:45;;;;;;;6.93;2.65;;;6.50;88.30;;;;;;4997998;28;20584;-62
2023/03/16 10:41:17;;;;;;;2.75;2.10;;;6.50;89.90;;;;;;4971955;28;20046;-62
2023/03/16 10:44:07;;;;;;;3.70;2.70;;;6.50;91.80;;;;;;4998858;28;20073;-62
2023/03/16 10:46:40;;;;;;;7.15;2.22;;;6.50;91.10;;;;;;4991395;28;20571;-62
2023/03/16 10:49:40;;;;;;;3.72;2.25;;;6.50;91.20;;;;;;4978278;28;20054;-62
2023/03/16 10:52:31;;;;;;;5.72;2.70;;;6.50;91.30;;;;;;4993786;28;20117;-62
2023/03/16 10:55:00;;;;;;;2.47;2.15;;;6.60;94.70;;;;;;4990799;28;20164;-62
2023/03/16 10:57:40;;;;;;;2.85;1.90;;;6.60;90.20;;;;;;5005961;28;20539;-62
2023/03/16 11:00:13;;;;;;;4.40;2.83;;;6.50;90.30;;;;;;5002805;28;20109;-62
2023/03/16 11:02:40;;;;;;;6.80;3.55;;;6.60;92.30;;;;;;4987316;28;20405;-62
2023/03/16 11:05:32;;;;;;;2.08;1.65;;;6.70;92.50;;;;;;4998168;28;20590;-62
2023/03/16 11:08:10;;;;;;;2.22;2.05;;;6.70;91.70;;;;;;4998848;28;20559;-62
2023/03/16 11:10:45;;;;;;;3.30;2.45;;;6.80;92.00;;;;;;4993561;28;20541;-62
2023/03/16 11:13:14;;;;;;;1.88;1.77;;;6.70;90.70;;;;;;4992453;28;20046;-62
2023/03/16 11:16:15;;;;;;;2.88;2.10;;;6.70;90.60;;;;;;4988700;28;20042;-62
2023/03/16 11:18:46;;;;;;;3.55;1.95;;;6.70;92.60;;;;;;4999762;28;20052;-62
2023/03/16 11:21:27;;;;;;;3.70;2.28;;;6.60;92.20;;;;;;4990295;28;20093;-62
2023/03/16 11:23:55;;;;;;;10.27;2.55;;;6.50;91.60;;;;;;4989156;28;20042;-62
2023/03/16 11:26:38;;;;;;;3.60;1.77;;;6.50;94.50;;;;;;4989615;28;20521;-62
2023/03/16 11:29:34;;;;;;;3.55;2.92;;;6.40;94.80;;;;;;4971458;28;20073;-62
2023/03/16 11:32:04;;;;;;;3.03;2.53;;;6.40;95.90;;;;;;4987818;28;20117;-62
2023/03/16 11:34:32;;;;;;;3.60;2.50;;;6.30;95.50;;;;;;4992172;28;20397;-62
2023/03/16 11:37:47;;;;;;;4.07;2.33;;;6.40;96.60;;;;;;4988065;28;20428;-62
2023/03/16 11:40:32;;;;;;;2.75;1.52;;;6.30;97.00;;;;;;4933048;29;20051;-62
2023/03/16 11:43:08;;;;;;;2.10;1.85;;;6.30;98.60;;;;;;4929826;29;20071;-62
2023/03/16 11:46:04;;;;;;;2.08;1.67;;;6.30;98.10;;;;;;4961763;28;20076;-62
2023/03/16 11:48:50;;;;;;;1.05;1.05;;;6.20;98.10;;;;;;4995041;28;20585;-62
2023/03/16 11:51:34;;;;;;;2.05;1.58;;;6.10;99.90;;;;;;4979956;28;20084;-62
2023/03/16 11:54:21;;;;;;;2.92;2.03;;;6.10;99.90;;;;;;4987679;28;20073;-62
2023/03/16 11:56:57;;;;;;;6.82;2.03;;;6.00;99.90;;;;;;4990723;28;20501;-63
2023/03/16 12:00:04;;;;;;;2.20;1.90;;;6.00;99.90;;;;;;4971736;28;20065;-63
2023/03/16 12:02:52;;;;;;;3.50;2.53;;;6.00;99.90;;;;;;4979399;28;20054;-63
2023/03/16 12:05:33;;;;;;;3.63;2.63;;;6.00;99.90;;;;;;4984099;28;20515;-63
2023/03/16 12:08:03;;;;;;;6.13;2.80;;;6.00;99.90;;;;;;4972651;28;20073;-63
2023/03/16 12:10:35;;;;;;;2.78;2.10;;;6.10;99.90;;;;;;4991346;28;20050;-63
2023/03/16 12:13:18;;;;;;;3.22;2.00;;;6.10;99.90;;;;;;4994771;28;20066;-63
2023/03/16 12:15:52;;;;;;;2.08;1.98;;;6.10;99.90;;;;;;4991771;28;20042;-63
2023/03/16 12:18:23;;;;;;;2.38;1.52;;;6.20;99.90;;;;;;4996228;28;20136;-63
2023/03/16 12:20:59;;;;;;;7.40;2.22;;;6.20;99.90;;;;;;4994237;28;20497;-63
2023/03/16 12:23:33;;;;;;;2.83;2.08;;;6.30;99.90;;;;;;4998694;28;20042;-66
2023/03/16 12:26:00;;;;;;;10.10;2.13;;;6.30;99.90;;;;;;4999908;28;20888;-63
2023/03/16 12:28:28;;;;;;;1.40;1.30;;;6.30;99.90;;;;;;5003683;28;20038;-63
2023/03/16 12:31:08;;;;;;;2.10;1.83;;;6.30;99.90;;;;;;4993291;28;20084;-63
2023/03/16 12:34:12;;;;;;;12.25;2.30;;;6.30;99.90;;;;;;4992491;28;20057;-63
2023/03/16 12:36:37;;;;;;;4.18;2.90;;;6.40;99.90;;;;;;5000041;28;20057;-63
2023/03/16 12:39:08;;;;;;;4.07;2.45;;;6.40;99.90;;;;;;4992669;28;20046;-63
2023/03/16 12:41:59;;;;;;;2.70;1.90;;;6.40;99.90;;;;;;4999976;28;20053;-64
2023/03/16 12:44:47;;;;;;;7.60;2.67;;;6.50;99.90;;;;;;4982030;28;20046;-63
2023/03/16 12:47:38;;;;;;;1.30;1.30;;;6.60;99.90;;;;;;4974066;28;20046;-64
2023/03/16 12:50:16;;;;;;;2.47;2.33;;;6.70;99.90;;;;;;4979408;28;20646;-64
2023/03/16 12:52:47;;;;;;;2.03;1.92;;;6.70;99.40;;;;;;4999806;28;20049;-64
2023/03/16 12:55:20;;;;;;;3.00;2.60;;;6.70;98.20;;;;;;4992489;28;20057;-63
2023/03/16 12:57:50;;;;;;;5.35;2.20;;;6.80;99.20;;;;;;4973552;28;20499;-63
2023/03/16 13:00:16;;;;;;;;;;;6.90;99.00;;;;;;4974811;28;20156;-64
2023/03/16 13:02:49;;;;;;;2.92;1.40;;;7.10;99.20;;;;;;4996032;28;19925;-63
2023/03/16 13:05:31;;;;;;;3.47;2.03;;;7.30;96.60;;;;;;4989844;28;20054;-63
2023/03/16 13:08:14;;;;;;;2.08;1.67;;;7.40;93.30;;;;;;4992730;28;20117;-63
2023/03/16 13:10:41;;;;;;;4.28;2.17;;;7.50;93.30;;;;;;4968993;28;20050;-63
2023/03/16 13:13:10;;;;;;;4.85;2.13;;;7.60;94.00;;;;;;4971745;28;20057;-63